< < Back
Terminal Aerodrome Forecast


Current Version              Previous Versions:   1  2  3  4  5  6  7  8  9  

Terminal Aerodrome Forecast

245
FTUS42 KILM 302324
TAFILM
TAF
KILM 302324Z 0100/0124 18006KT P6SM SCT015
     FM011200 18009KT P6SM SCT035 PROB30 0118/0124 3SM -TSRA
      BKN025CB=

Latest METAR

019
SAUS70 KWBC 011100 RRX
MTRILM
METAR KILM 011053Z 00000KT 10SM SCT100 23/23 A3000 RMK AO2 LTG DSNT S
SLP157 T02330228


USA.gov is the U.S. government's official web portal to all federal, state and local government web resources and services.